Terminal Aerodrome Forecast
Issued by NWS Upton, NY

Home | Current Version | Previous Version | Text Only | Print | Product List | Glossary On
Versions: 1 2 3 4 5 6 7 8 9 10 11 12 13 14 15 16 17 18 19 20 21 22 23 24 25 26 27 28 29
000
FTUS41 KOKX 050900 AAB
TAFISP
TAF AMD
KISP 050920Z 0509/0606 33008KT 5SM -RA BR BKN015 OVC035
     FM051000 35008KT 1SM -SNPLRA BR SCT005 OVC015
     FM051100 35010KT 1/2SM SN FZFG OVC005
     FM051300 35012G18KT 1SM -SN BR OVC007
     FM051700 35012G18KT 2SM -SN BR SCT008 OVC015
     FM052300 33012KT P6SM BKN020 OVC050=

USA.gov is the U.S. government's official web portal to all federal, state and local government web resources and services.